createdAt,value
2022-12-04T00:02:35.000Z,-9.62
2022-12-04T00:07:35.000Z,-9.61
2022-12-04T00:12:34.000Z,-9.62
2022-12-04T00:17:35.000Z,-9.69
2022-12-04T00:22:35.000Z,-9.79
2022-12-04T00:27:34.000Z,-9.87
2022-12-04T00:32:35.000Z,-9.91
2022-12-04T00:37:34.000Z,-9.97
2022-12-04T00:42:34.000Z,-10.02
2022-12-04T00:47:35.000Z,-10.04
2022-12-04T00:52:34.000Z,-10.16
2022-12-04T00:57:35.000Z,-10.16
2022-12-04T01:02:34.000Z,-10.27
2022-12-04T01:07:34.000Z,-10.33
2022-12-04T01:12:35.000Z,-10.34
2022-12-04T01:17:35.000Z,-10.28
2022-12-04T01:22:35.000Z,-10.26
2022-12-04T01:27:35.000Z,-10.3
2022-12-04T01:32:34.000Z,-10.4
2022-12-04T01:37:35.000Z,-10.39
2022-12-04T01:42:34.000Z,-10.44
2022-12-04T01:47:35.000Z,-10.48
2022-12-04T01:52:34.000Z,-10.53
2022-12-04T01:57:35.000Z,-10.63
2022-12-04T02:02:35.000Z,-10.56
2022-12-04T02:07:35.000Z,-10.52
2022-12-04T02:12:35.000Z,-10.52
2022-12-04T02:17:35.000Z,-10.57
2022-12-04T02:27:34.000Z,-10.71
2022-12-04T02:32:34.000Z,-10.74
2022-12-04T02:37:35.000Z,-10.77
2022-12-04T02:42:35.000Z,-10.77
2022-12-04T02:47:34.000Z,-10.81
2022-12-04T02:52:35.000Z,-10.84
2022-12-04T02:57:35.000Z,-10.8
2022-12-04T03:02:35.000Z,-10.88
2022-12-04T03:07:35.000Z,-10.95
2022-12-04T03:12:34.000Z,-10.99
2022-12-04T03:17:35.000Z,-11.01
2022-12-04T03:22:35.000Z,-11.04
2022-12-04T03:27:35.000Z,-11.04
2022-12-04T03:32:34.000Z,-11.04
2022-12-04T03:37:39.000Z,-11.09
2022-12-04T03:42:34.000Z,-11.08
2022-12-04T03:52:34.000Z,-11.05
2022-12-04T03:57:34.000Z,-11.1
2022-12-04T04:02:34.000Z,-11.07
2022-12-04T04:07:41.000Z,-11.01
2022-12-04T04:12:35.000Z,-11.06
2022-12-04T04:17:35.000Z,-11
2022-12-04T04:27:35.000Z,-11.09
2022-12-04T04:32:34.000Z,-11.11
2022-12-04T04:37:35.000Z,-11.14
2022-12-04T04:42:35.000Z,-11.12
2022-12-04T04:47:35.000Z,-11.15
2022-12-04T04:57:35.000Z,-11.28
2022-12-04T05:02:35.000Z,-11.28
2022-12-04T05:07:35.000Z,-11.28
2022-12-04T05:12:35.000Z,-11.33
2022-12-04T05:17:34.000Z,-11.3
2022-12-04T05:22:35.000Z,-11.33
2022-12-04T05:27:34.000Z,-11.38
2022-12-04T05:32:35.000Z,-11.33
2022-12-04T05:37:34.000Z,-11.33
2022-12-04T05:42:34.000Z,-11.3
2022-12-04T05:47:35.000Z,-11.25
2022-12-04T05:52:35.000Z,-11.19
2022-12-04T05:57:35.000Z,-11.16
2022-12-04T06:02:34.000Z,-11.01
2022-12-04T06:07:35.000Z,-10.82
2022-12-04T06:12:34.000Z,-10.29
2022-12-04T06:17:35.000Z,-9.12
2022-12-04T06:22:35.000Z,-8.45
2022-12-04T06:27:38.000Z,-8.06
2022-12-04T06:32:34.000Z,-7.1
2022-12-04T06:37:35.000Z,-6.33
2022-12-04T06:42:35.000Z,-6.34
2022-12-04T06:47:35.000Z,-6.77
2022-12-04T06:52:35.000Z,-6.77
2022-12-04T06:57:34.000Z,-7.13
2022-12-04T07:02:35.000Z,-7.39
2022-12-04T07:07:35.000Z,-7.64
2022-12-04T07:12:35.000Z,-7.92
2022-12-04T07:17:35.000Z,-7.87
2022-12-04T07:22:35.000Z,-6.89
2022-12-04T07:27:35.000Z,-5.29
2022-12-04T07:32:34.000Z,-4.18
2022-12-04T07:37:35.000Z,-2.71
2022-12-04T07:42:34.000Z,-1.13
2022-12-04T07:47:35.000Z,-0.79
2022-12-04T07:52:34.000Z,-1.47
2022-12-04T07:57:35.000Z,-1.76
2022-12-04T08:02:35.000Z,-1.34
2022-12-04T08:07:35.000Z,-1.34
2022-12-04T08:12:35.000Z,-1.81
2022-12-04T08:17:34.000Z,-2.7
2022-12-04T08:22:35.000Z,-4.1
2022-12-04T08:27:34.000Z,-4.58
2022-12-04T08:32:35.000Z,-4.35
2022-12-04T08:37:34.000Z,-4.29
2022-12-04T08:42:35.000Z,-4.7
2022-12-04T08:47:34.000Z,-5.08
2022-12-04T08:52:35.000Z,-4.56
2022-12-04T08:57:34.000Z,-4.25
2022-12-04T09:02:35.000Z,-4.81
2022-12-04T09:07:34.000Z,-5.41
2022-12-04T09:12:34.000Z,-5.8
2022-12-04T09:17:34.000Z,-6.25
2022-12-04T09:22:35.000Z,-6.25
2022-12-04T09:27:34.000Z,-6.79
2022-12-04T09:32:35.000Z,-7.04
2022-12-04T09:37:34.000Z,-7.33
2022-12-04T09:47:34.000Z,-7.3
2022-12-04T09:52:35.000Z,-7.53
2022-12-04T09:57:35.000Z,-7.42
2022-12-04T10:02:35.000Z,-7.31
2022-12-04T10:07:35.000Z,-7.37
2022-12-04T10:12:35.000Z,-7.37
2022-12-04T10:17:42.000Z,-7.47
2022-12-04T10:22:35.000Z,-7.42
2022-12-04T10:27:34.000Z,-7.28
2022-12-04T10:32:35.000Z,-7.21
2022-12-04T10:37:34.000Z,-7.36
2022-12-04T10:42:35.000Z,-7.32
2022-12-04T10:47:35.000Z,-7.12
2022-12-04T10:52:34.000Z,-6.98
2022-12-04T11:02:35.000Z,-7.14
2022-12-04T11:07:35.000Z,-7.14
2022-12-04T11:12:35.000Z,-7.21
2022-12-04T11:17:34.000Z,-7.26
2022-12-04T11:22:35.000Z,-7.34
2022-12-04T11:27:35.000Z,-7.36
2022-12-04T11:32:35.000Z,-7.44
2022-12-04T11:37:35.000Z,-7.41
2022-12-04T11:42:34.000Z,-7.41
2022-12-04T11:47:34.000Z,-7.35
2022-12-04T11:52:34.000Z,-7.26
2022-12-04T11:57:35.000Z,-7.24
2022-12-04T12:02:35.000Z,-7.46
2022-12-04T12:07:35.000Z,-7.62
2022-12-04T12:12:35.000Z,-7.72
2022-12-04T12:17:34.000Z,-7.81
2022-12-04T12:22:34.000Z,-7.88
2022-12-04T12:27:35.000Z,-7.92
2022-12-04T12:32:35.000Z,-8.01
2022-12-04T12:37:35.000Z,-8.08
2022-12-04T12:42:35.000Z,-8.1
2022-12-04T12:47:35.000Z,-8.24
2022-12-04T12:52:35.000Z,-8.24
2022-12-04T12:57:35.000Z,-8.37
2022-12-04T13:02:35.000Z,-8.49
2022-12-04T13:07:35.000Z,-8.51
2022-12-04T13:12:35.000Z,-8.55
2022-12-04T13:17:34.000Z,-8.62
2022-12-04T13:22:34.000Z,-8.59
2022-12-04T13:27:35.000Z,-8.55
2022-12-04T13:32:37.000Z,-8.59
2022-12-04T13:37:35.000Z,-8.7
2022-12-04T13:42:34.000Z,-8.88
2022-12-04T13:47:35.000Z,-8.89
2022-12-04T13:52:34.000Z,-8.85
2022-12-04T13:57:34.000Z,-8.98
2022-12-04T14:02:34.000Z,-9.09
2022-12-04T14:07:35.000Z,-9.09
2022-12-04T14:12:35.000Z,-9.2
2022-12-04T14:17:34.000Z,-9.29
2022-12-04T14:22:35.000Z,-9.36
2022-12-04T14:27:34.000Z,-9.46
2022-12-04T14:32:34.000Z,-9.48
2022-12-04T14:37:35.000Z,-9.54
2022-12-04T14:42:34.000Z,-9.54
2022-12-04T14:47:34.000Z,-9.51
2022-12-04T14:52:34.000Z,-9.49
2022-12-04T14:57:34.000Z,-9.55
2022-12-04T15:02:35.000Z,-9.62
2022-12-04T15:07:35.000Z,-9.64
2022-12-04T15:12:34.000Z,-9.73
2022-12-04T15:17:35.000Z,-9.81
2022-12-04T15:22:34.000Z,-9.81
2022-12-04T15:27:42.000Z,-9.9
2022-12-04T15:32:35.000Z,-9.93
2022-12-04T15:37:35.000Z,-9.96
2022-12-04T15:42:35.000Z,-10.01
2022-12-04T15:47:35.000Z,-10.11
2022-12-04T15:52:35.000Z,-10.01
2022-12-04T15:57:34.000Z,-10.04
2022-12-04T16:02:35.000Z,-10.11
2022-12-04T16:07:34.000Z,-10.13
2022-12-04T16:12:36.000Z,-10.17
2022-12-04T16:17:35.000Z,-10.19
2022-12-04T16:22:34.000Z,-10.23
2022-12-04T16:27:35.000Z,-10.24
2022-12-04T16:32:35.000Z,-10.24
2022-12-04T16:37:35.000Z,-10.24
2022-12-04T16:42:34.000Z,-10.24
2022-12-04T16:47:35.000Z,-10.17
2022-12-04T16:52:34.000Z,-10.11
2022-12-04T16:57:35.000Z,-10.07
2022-12-04T17:02:34.000Z,-10.05
2022-12-04T17:07:35.000Z,-10.01
2022-12-04T17:12:34.000Z,-10.02
2022-12-04T17:17:35.000Z,-10.08
2022-12-04T17:22:34.000Z,-10.1
2022-12-04T17:27:35.000Z,-10.12
2022-12-04T17:32:34.000Z,-10.17
2022-12-04T17:37:35.000Z,-10.21
2022-12-04T17:42:35.000Z,-10.15
2022-12-04T17:57:35.000Z,-10.09
2022-12-04T18:02:34.000Z,-10.08
2022-12-04T18:07:35.000Z,-10.08
2022-12-04T18:12:35.000Z,-10.07
2022-12-04T18:22:34.000Z,-10.24
2022-12-04T18:27:35.000Z,-10.26
2022-12-04T18:32:34.000Z,-10.26
2022-12-04T18:37:35.000Z,-10.19
2022-12-04T18:42:35.000Z,-10.13
2022-12-04T18:47:35.000Z,-10.14
2022-12-04T18:52:34.000Z,-10.24
2022-12-04T18:57:35.000Z,-10.27
2022-12-04T19:07:35.000Z,-10.36
2022-12-04T19:12:35.000Z,-10.46
2022-12-04T19:17:35.000Z,-10.46
2022-12-04T19:22:35.000Z,-10.49
2022-12-04T19:27:34.000Z,-10.61
2022-12-04T19:32:35.000Z,-10.66
2022-12-04T19:37:34.000Z,-10.64
2022-12-04T19:42:35.000Z,-10.6
2022-12-04T19:47:34.000Z,-10.58
2022-12-04T19:52:35.000Z,-10.65
2022-12-04T19:57:35.000Z,-10.68
2022-12-04T20:02:35.000Z,-10.62
2022-12-04T20:07:34.000Z,-10.64
2022-12-04T20:17:34.000Z,-10.74
2022-12-04T20:22:35.000Z,-10.8
2022-12-04T20:27:35.000Z,-10.82
2022-12-04T20:32:35.000Z,-10.9
2022-12-04T20:37:35.000Z,-10.86
2022-12-04T20:42:43.000Z,-10.86
2022-12-04T20:47:34.000Z,-10.86
2022-12-04T20:52:35.000Z,-10.88
2022-12-04T20:57:34.000Z,-10.92
2022-12-04T21:02:35.000Z,-10.86
2022-12-04T21:07:34.000Z,-10.75
2022-12-04T21:12:35.000Z,-10.74
2022-12-04T21:17:34.000Z,-10.69
2022-12-04T21:22:35.000Z,-10.71
2022-12-04T21:27:34.000Z,-10.75
2022-12-04T21:32:35.000Z,-10.76
2022-12-04T21:37:35.000Z,-10.81
2022-12-04T21:47:35.000Z,-10.86
2022-12-04T21:52:34.000Z,-10.96
2022-12-04T21:57:35.000Z,-11.05
2022-12-04T22:02:34.000Z,-11.14
2022-12-04T22:07:35.000Z,-11.2
2022-12-04T22:12:59.000Z,-11.36
2022-12-04T22:17:34.000Z,-11.37
2022-12-04T22:22:35.000Z,-11.34
2022-12-04T22:27:35.000Z,-11.43
2022-12-04T22:32:35.000Z,-11.43
2022-12-04T22:37:34.000Z,-11.36
2022-12-04T22:42:34.000Z,-11.32
2022-12-04T22:47:35.000Z,-11.32
2022-12-04T22:52:35.000Z,-11.28
2022-12-04T22:57:35.000Z,-11.32
2022-12-04T23:02:34.000Z,-11.48
2022-12-04T23:07:35.000Z,-11.64
2022-12-04T23:12:34.000Z,-11.72
2022-12-04T23:17:35.000Z,-11.72
2022-12-04T23:22:34.000Z,-11.85
2022-12-04T23:27:34.000Z,-11.94
2022-12-04T23:42:34.000Z,-11.87
2022-12-04T23:47:35.000Z,-11.95
2022-12-04T23:52:34.000Z,-12.07
2022-12-04T23:57:35.000Z,-12.04
